Decoded Metar for EYKA (KAUNAS in LITHUANIA) (IATA:N/A) | Meteo·Mobile Aviation Weather
aviador You're here:

EYKA Decoded Metar

KAUNAS in LITHUANIA
Report Time2018-09-21 11:20:00
UTC Time2018-09-21 11:29:28
Flight Rules vfr VFR
Wind210° at 13 kt
W.Decomp.*RWY 26: 7.3 kt HW 10.8 kt LCW
W.Rank210° ranks 11
Current wind is above 210° avg. (6.0)
Visibility9999 m
Phenomena:N/A
Clouds:N/A
Expected CloudBase > 5,600 ft AGL from Temp-Dew spread
CeilingNone
Temp27°C (ISA +13)
Dew Point13°C (42% RH)
Heat Index27.0°C
AAT23.2°C
QNH1014 hPa
Density Alt1,864 ft
Elevation253 ft
Report Wrong Elevation
Raw Report
EYKA 211120Z 21013KT 170V240 CAVOK 27/13 Q1014=

Extra information for EYKA:More info

Metar Taf Metar & Taf Last 4 Metars F.Rules Stats Wind Profile Meteogram Temp Stats Airport Information Weather charts Add Link Nearby VenuesMetar ALERT Operation Metar Decoded Social comments